sensor_id;sensor_type;location;lat;lon;timestamp;P1;durP1;ratioP1;P2;durP2;ratioP2
59880;SDS011;45751;51.380;10.326;2024-01-07T00:00:03;11.80;;;4.30;;
59880;SDS011;45751;51.380;10.326;2024-01-07T00:02:29;9.88;;;4.68;;
59880;SDS011;45751;51.380;10.326;2024-01-07T00:04:56;11.77;;;4.38;;
59880;SDS011;45751;51.380;10.326;2024-01-07T00:07:22;13.45;;;4.47;;
59880;SDS011;45751;51.380;10.326;2024-01-07T00:09:48;13.48;;;4.88;;
59880;SDS011;45751;51.380;10.326;2024-01-07T00:12:14;14.15;;;4.57;;
59880;SDS011;45751;51.380;10.326;2024-01-07T00:14:40;14.35;;;4.55;;
59880;SDS011;45751;51.380;10.326;2024-01-07T00:17:06;10.73;;;4.65;;
59880;SDS011;45751;51.380;10.326;2024-01-07T00:19:32;9.35;;;3.35;;
59880;SDS011;45751;51.380;10.326;2024-01-07T00:22:00;12.52;;;4.57;;
59880;SDS011;45751;51.380;10.326;2024-01-07T00:24:26;10.93;;;4.10;;
59880;SDS011;45751;51.380;10.326;2024-01-07T00:26:54;12.57;;;5.32;;
59880;SDS011;45751;51.380;10.326;2024-01-07T00:29:20;16.75;;;5.53;;
59880;SDS011;45751;51.380;10.326;2024-01-07T00:31:46;14.07;;;5.13;;
59880;SDS011;45751;51.380;10.326;2024-01-07T00:34:11;15.77;;;5.82;;
59880;SDS011;45751;51.380;10.326;2024-01-07T00:36:38;17.77;;;6.47;;
59880;SDS011;45751;51.380;10.326;2024-01-07T00:39:04;14.18;;;5.43;;
59880;SDS011;45751;51.380;10.326;2024-01-07T00:41:31;10.90;;;5.43;;
59880;SDS011;45751;51.380;10.326;2024-01-07T00:43:57;13.10;;;5.60;;
59880;SDS011;45751;51.380;10.326;2024-01-07T00:46:23;12.60;;;5.32;;
59880;SDS011;45751;51.380;10.326;2024-01-07T00:48:49;13.32;;;4.45;;
59880;SDS011;45751;51.380;10.326;2024-01-07T00:51:15;12.48;;;5.45;;
59880;SDS011;45751;51.380;10.326;2024-01-07T00:53:40;15.57;;;5.43;;
59880;SDS011;45751;51.380;10.326;2024-01-07T00:56:06;12.00;;;5.38;;
59880;SDS011;45751;51.380;10.326;2024-01-07T00:58:32;18.17;;;6.10;;
59880;SDS011;45751;51.380;10.326;2024-01-07T01:00:58;16.95;;;5.55;;
59880;SDS011;45751;51.380;10.326;2024-01-07T01:03:25;14.60;;;4.78;;
59880;SDS011;45751;51.380;10.326;2024-01-07T01:05:51;15.95;;;5.30;;
59880;SDS011;45751;51.380;10.326;2024-01-07T01:08:18;22.17;;;7.43;;
59880;SDS011;45751;51.380;10.326;2024-01-07T01:10:44;14.95;;;5.45;;
59880;SDS011;45751;51.380;10.326;2024-01-07T01:13:09;13.10;;;5.30;;
59880;SDS011;45751;51.380;10.326;2024-01-07T01:15:36;18.25;;;5.22;;
59880;SDS011;45751;51.380;10.326;2024-01-07T01:18:01;12.18;;;5.13;;
59880;SDS011;45751;51.380;10.326;2024-01-07T01:20:27;14.20;;;6.32;;
59880;SDS011;45751;51.380;10.326;2024-01-07T01:22:53;14.35;;;6.38;;
59880;SDS011;45751;51.380;10.326;2024-01-07T01:25:19;15.48;;;6.72;;
59880;SDS011;45751;51.380;10.326;2024-01-07T01:27:44;13.23;;;6.07;;
59880;SDS011;45751;51.380;10.326;2024-01-07T01:30:10;13.18;;;5.35;;
59880;SDS011;45751;51.380;10.326;2024-01-07T01:32:36;13.00;;;6.20;;
59880;SDS011;45751;51.380;10.326;2024-01-07T01:35:04;19.00;;;7.03;;
59880;SDS011;45751;51.380;10.326;2024-01-07T01:37:30;14.45;;;4.65;;
59880;SDS011;45751;51.380;10.326;2024-01-07T01:39:58;10.65;;;4.70;;
59880;SDS011;45751;51.380;10.326;2024-01-07T01:42:24;15.60;;;6.25;;
59880;SDS011;45751;51.380;10.326;2024-01-07T01:44:50;9.88;;;5.47;;
59880;SDS011;45751;51.380;10.326;2024-01-07T01:47:17;14.73;;;6.78;;
59880;SDS011;45751;51.380;10.326;2024-01-07T01:49:43;12.88;;;7.25;;
59880;SDS011;45751;51.380;10.326;2024-01-07T01:52:10;17.35;;;6.18;;
59880;SDS011;45751;51.380;10.326;2024-01-07T01:54:38;12.68;;;6.15;;
59880;SDS011;45751;51.380;10.326;2024-01-07T01:57:04;13.38;;;5.82;;
59880;SDS011;45751;51.380;10.326;2024-01-07T01:59:30;11.82;;;5.57;;
59880;SDS011;45751;51.380;10.326;2024-01-07T02:01:59;13.52;;;5.80;;
59880;SDS011;45751;51.380;10.326;2024-01-07T02:04:25;11.20;;;5.13;;
59880;SDS011;45751;51.380;10.326;2024-01-07T02:06:51;12.02;;;5.68;;
59880;SDS011;45751;51.380;10.326;2024-01-07T02:09:17;12.30;;;4.57;;
59880;SDS011;45751;51.380;10.326;2024-01-07T02:11:43;9.00;;;3.90;;
59880;SDS011;45751;51.380;10.326;2024-01-07T02:14:09;10.48;;;4.00;;
59880;SDS011;45751;51.380;10.326;2024-01-07T02:16:34;9.60;;;3.45;;
59880;SDS011;45751;51.380;10.326;2024-01-07T02:19:01;12.48;;;4.32;;
59880;SDS011;45751;51.380;10.326;2024-01-07T02:21:26;8.23;;;3.53;;
59880;SDS011;45751;51.380;10.326;2024-01-07T02:23:53;10.23;;;4.20;;
59880;SDS011;45751;51.380;10.326;2024-01-07T02:26:19;13.43;;;4.75;;
59880;SDS011;45751;51.380;10.326;2024-01-07T02:28:45;8.18;;;4.15;;
59880;SDS011;45751;51.380;10.326;2024-01-07T02:31:10;10.18;;;3.60;;
59880;SDS011;45751;51.380;10.326;2024-01-07T02:33:36;12.07;;;5.28;;
59880;SDS011;45751;51.380;10.326;2024-01-07T02:36:02;9.98;;;3.70;;
59880;SDS011;45751;51.380;10.326;2024-01-07T02:38:28;10.27;;;4.35;;
59880;SDS011;45751;51.380;10.326;2024-01-07T02:40:53;9.77;;;4.30;;
59880;SDS011;45751;51.380;10.326;2024-01-07T02:43:19;7.63;;;3.85;;
59880;SDS011;45751;51.380;10.326;2024-01-07T02:45:45;15.45;;;4.80;;
59880;SDS011;45751;51.380;10.326;2024-01-07T02:48:10;8.07;;;3.42;;
59880;SDS011;45751;51.380;10.326;2024-01-07T02:50:36;10.50;;;3.53;;
59880;SDS011;45751;51.380;10.326;2024-01-07T02:53:02;10.23;;;3.67;;
59880;SDS011;45751;51.380;10.326;2024-01-07T02:55:28;9.43;;;4.93;;
59880;SDS011;45751;51.380;10.326;2024-01-07T02:57:53;7.47;;;2.75;;
59880;SDS011;45751;51.380;10.326;2024-01-07T03:00:19;8.52;;;3.20;;
59880;SDS011;45751;51.380;10.326;2024-01-07T03:02:45;11.07;;;4.15;;
59880;SDS011;45751;51.380;10.326;2024-01-07T03:05:10;9.20;;;3.70;;
59880;SDS011;45751;51.380;10.326;2024-01-07T03:07:37;10.35;;;4.00;;
59880;SDS011;45751;51.380;10.326;2024-01-07T03:10:04;11.95;;;4.07;;
59880;SDS011;45751;51.380;10.326;2024-01-07T03:12:30;9.43;;;4.13;;
59880;SDS011;45751;51.380;10.326;2024-01-07T03:14:56;13.82;;;3.72;;
59880;SDS011;45751;51.380;10.326;2024-01-07T03:17:22;8.68;;;3.08;;
59880;SDS011;45751;51.380;10.326;2024-01-07T03:19:49;11.80;;;3.70;;
59880;SDS011;45751;51.380;10.326;2024-01-07T03:22:14;10.75;;;3.85;;
59880;SDS011;45751;51.380;10.326;2024-01-07T03:24:41;8.88;;;3.60;;
59880;SDS011;45751;51.380;10.326;2024-01-07T03:27:07;10.55;;;3.72;;
59880;SDS011;45751;51.380;10.326;2024-01-07T03:29:33;5.80;;;2.40;;
59880;SDS011;45751;51.380;10.326;2024-01-07T03:31:58;6.95;;;3.25;;
59880;SDS011;45751;51.380;10.326;2024-01-07T03:34:24;7.40;;;3.45;;
59880;SDS011;45751;51.380;10.326;2024-01-07T03:36:50;9.57;;;3.50;;
59880;SDS011;45751;51.380;10.326;2024-01-07T03:39:16;10.82;;;3.80;;
59880;SDS011;45751;51.380;10.326;2024-01-07T03:41:42;6.40;;;2.92;;
59880;SDS011;45751;51.380;10.326;2024-01-07T03:44:07;11.48;;;3.58;;
59880;SDS011;45751;51.380;10.326;2024-01-07T03:46:33;8.43;;;3.75;;
59880;SDS011;45751;51.380;10.326;2024-01-07T03:48:59;9.15;;;3.60;;
59880;SDS011;45751;51.380;10.326;2024-01-07T03:51:24;14.00;;;5.43;;
59880;SDS011;45751;51.380;10.326;2024-01-07T03:53:51;12.10;;;3.92;;
59880;SDS011;45751;51.380;10.326;2024-01-07T03:56:16;9.23;;;3.17;;
59880;SDS011;45751;51.380;10.326;2024-01-07T03:58:42;7.93;;;3.00;;
59880;SDS011;45751;51.380;10.326;2024-01-07T04:01:08;8.02;;;3.15;;
59880;SDS011;45751;51.380;10.326;2024-01-07T04:03:33;8.68;;;4.05;;
59880;SDS011;45751;51.380;10.326;2024-01-07T04:05:59;10.45;;;3.55;;
59880;SDS011;45751;51.380;10.326;2024-01-07T04:08:25;10.85;;;3.75;;
59880;SDS011;45751;51.380;10.326;2024-01-07T04:10:50;9.63;;;4.15;;
59880;SDS011;45751;51.380;10.326;2024-01-07T04:13:16;8.63;;;3.33;;
59880;SDS011;45751;51.380;10.326;2024-01-07T04:15:42;5.90;;;2.05;;
59880;SDS011;45751;51.380;10.326;2024-01-07T04:18:07;6.20;;;2.15;;
59880;SDS011;45751;51.380;10.326;2024-01-07T04:20:33;7.32;;;3.10;;
59880;SDS011;45751;51.380;10.326;2024-01-07T04:22:59;11.05;;;4.70;;
59880;SDS011;45751;51.380;10.326;2024-01-07T04:25:24;7.20;;;2.72;;
59880;SDS011;45751;51.380;10.326;2024-01-07T04:27:50;8.80;;;2.88;;
59880;SDS011;45751;51.380;10.326;2024-01-07T04:30:16;9.10;;;3.25;;
59880;SDS011;45751;51.380;10.326;2024-01-07T04:32:42;9.38;;;3.08;;
59880;SDS011;45751;51.380;10.326;2024-01-07T04:35:08;8.43;;;2.75;;
59880;SDS011;45751;51.380;10.326;2024-01-07T04:37:35;9.02;;;4.47;;
59880;SDS011;45751;51.380;10.326;2024-01-07T04:40:03;5.50;;;1.92;;
59880;SDS011;45751;51.380;10.326;2024-01-07T04:42:29;7.43;;;2.80;;
59880;SDS011;45751;51.380;10.326;2024-01-07T04:44:54;7.82;;;3.33;;
59880;SDS011;45751;51.380;10.326;2024-01-07T04:47:30;7.38;;;2.80;;
59880;SDS011;45751;51.380;10.326;2024-01-07T04:49:59;8.95;;;3.95;;
59880;SDS011;45751;51.380;10.326;2024-01-07T04:52:25;7.32;;;3.03;;
59880;SDS011;45751;51.380;10.326;2024-01-07T04:54:51;9.20;;;2.88;;
59880;SDS011;45751;51.380;10.326;2024-01-07T04:57:20;12.90;;;3.78;;
59880;SDS011;45751;51.380;10.326;2024-01-07T04:59:47;7.35;;;3.15;;
59880;SDS011;45751;51.380;10.326;2024-01-07T05:02:14;10.38;;;2.92;;
59880;SDS011;45751;51.380;10.326;2024-01-07T05:04:40;12.07;;;4.30;;
59880;SDS011;45751;51.380;10.326;2024-01-07T05:07:06;8.68;;;2.88;;
59880;SDS011;45751;51.380;10.326;2024-01-07T05:09:32;7.18;;;2.53;;
59880;SDS011;45751;51.380;10.326;2024-01-07T05:11:58;7.55;;;2.53;;
59880;SDS011;45751;51.380;10.326;2024-01-07T05:14:24;5.40;;;1.92;;
59880;SDS011;45751;51.380;10.326;2024-01-07T05:16:50;3.55;;;1.60;;
59880;SDS011;45751;51.380;10.326;2024-01-07T05:19:16;8.30;;;3.28;;
59880;SDS011;45751;51.380;10.326;2024-01-07T05:21:42;5.93;;;1.67;;
59880;SDS011;45751;51.380;10.326;2024-01-07T05:24:07;8.32;;;2.50;;
59880;SDS011;45751;51.380;10.326;2024-01-07T05:26:39;7.68;;;2.72;;
59880;SDS011;45751;51.380;10.326;2024-01-07T05:29:09;7.50;;;2.58;;
59880;SDS011;45751;51.380;10.326;2024-01-07T05:31:36;6.43;;;2.70;;
59880;SDS011;45751;51.380;10.326;2024-01-07T05:34:02;4.95;;;2.22;;
59880;SDS011;45751;51.380;10.326;2024-01-07T05:36:28;5.50;;;2.08;;
59880;SDS011;45751;51.380;10.326;2024-01-07T05:38:54;6.88;;;2.00;;
59880;SDS011;45751;51.380;10.326;2024-01-07T05:41:19;6.35;;;2.28;;
59880;SDS011;45751;51.380;10.326;2024-01-07T05:43:46;6.70;;;2.17;;
59880;SDS011;45751;51.380;10.326;2024-01-07T05:46:11;5.78;;;2.47;;
59880;SDS011;45751;51.380;10.326;2024-01-07T05:48:44;4.88;;;1.73;;
59880;SDS011;45751;51.380;10.326;2024-01-07T05:51:11;6.57;;;2.35;;
59880;SDS011;45751;51.380;10.326;2024-01-07T05:53:38;9.27;;;3.00;;
59880;SDS011;45751;51.380;10.326;2024-01-07T05:56:05;8.63;;;2.53;;
59880;SDS011;45751;51.380;10.326;2024-01-07T05:58:31;7.68;;;2.45;;
59880;SDS011;45751;51.380;10.326;2024-01-07T06:00:57;7.28;;;3.00;;
59880;SDS011;45751;51.380;10.326;2024-01-07T06:03:22;4.28;;;1.85;;
59880;SDS011;45751;51.380;10.326;2024-01-07T06:05:48;6.43;;;2.25;;
59880;SDS011;45751;51.380;10.326;2024-01-07T06:08:14;7.63;;;2.55;;
59880;SDS011;45751;51.380;10.326;2024-01-07T06:10:40;7.07;;;2.33;;
59880;SDS011;45751;51.380;10.326;2024-01-07T06:13:06;8.93;;;2.42;;
59880;SDS011;45751;51.380;10.326;2024-01-07T06:15:31;7.15;;;2.47;;
59880;SDS011;45751;51.380;10.326;2024-01-07T06:17:57;6.50;;;2.08;;
59880;SDS011;45751;51.380;10.326;2024-01-07T06:20:23;3.35;;;1.20;;
59880;SDS011;45751;51.380;10.326;2024-01-07T06:22:49;7.70;;;3.72;;
59880;SDS011;45751;51.380;10.326;2024-01-07T06:25:15;6.80;;;2.58;;
59880;SDS011;45751;51.380;10.326;2024-01-07T06:27:41;6.20;;;1.85;;
59880;SDS011;45751;51.380;10.326;2024-01-07T06:30:07;3.83;;;1.88;;
59880;SDS011;45751;51.380;10.326;2024-01-07T06:32:33;5.57;;;1.98;;
59880;SDS011;45751;51.380;10.326;2024-01-07T06:34:59;6.22;;;1.90;;
59880;SDS011;45751;51.380;10.326;2024-01-07T06:37:25;7.78;;;2.90;;
59880;SDS011;45751;51.380;10.326;2024-01-07T06:39:54;4.75;;;1.50;;
59880;SDS011;45751;51.380;10.326;2024-01-07T06:42:20;5.50;;;1.95;;
59880;SDS011;45751;51.380;10.326;2024-01-07T06:44:46;5.82;;;1.90;;
59880;SDS011;45751;51.380;10.326;2024-01-07T06:47:11;4.85;;;1.77;;
59880;SDS011;45751;51.380;10.326;2024-01-07T06:49:37;5.63;;;2.25;;
59880;SDS011;45751;51.380;10.326;2024-01-07T06:52:04;7.90;;;2.90;;
59880;SDS011;45751;51.380;10.326;2024-01-07T06:54:30;5.15;;;1.92;;
59880;SDS011;45751;51.380;10.326;2024-01-07T06:56:56;6.70;;;2.65;;
59880;SDS011;45751;51.380;10.326;2024-01-07T06:59:21;4.65;;;1.38;;
59880;SDS011;45751;51.380;10.326;2024-01-07T07:01:47;4.65;;;1.83;;
59880;SDS011;45751;51.380;10.326;2024-01-07T07:04:13;5.18;;;1.77;;
59880;SDS011;45751;51.380;10.326;2024-01-07T07:06:38;10.77;;;2.05;;
59880;SDS011;45751;51.380;10.326;2024-01-07T07:09:04;8.50;;;2.15;;
59880;SDS011;45751;51.380;10.326;2024-01-07T07:11:30;6.13;;;2.28;;
59880;SDS011;45751;51.380;10.326;2024-01-07T07:13:56;8.00;;;2.45;;
59880;SDS011;45751;51.380;10.326;2024-01-07T07:16:22;6.85;;;2.95;;
59880;SDS011;45751;51.380;10.326;2024-01-07T07:18:48;9.13;;;3.42;;
59880;SDS011;45751;51.380;10.326;2024-01-07T07:21:14;6.13;;;2.30;;
59880;SDS011;45751;51.380;10.326;2024-01-07T07:23:39;7.25;;;2.17;;
59880;SDS011;45751;51.380;10.326;2024-01-07T07:26:05;10.43;;;2.45;;
59880;SDS011;45751;51.380;10.326;2024-01-07T07:28:32;3.67;;;1.58;;
59880;SDS011;45751;51.380;10.326;2024-01-07T07:30:57;5.30;;;1.98;;
59880;SDS011;45751;51.380;10.326;2024-01-07T07:33:23;5.10;;;1.98;;
59880;SDS011;45751;51.380;10.326;2024-01-07T07:35:49;7.80;;;2.50;;
59880;SDS011;45751;51.380;10.326;2024-01-07T07:38:15;5.88;;;2.28;;
59880;SDS011;45751;51.380;10.326;2024-01-07T07:40:40;7.00;;;3.30;;
59880;SDS011;45751;51.380;10.326;2024-01-07T07:43:07;4.60;;;1.80;;
59880;SDS011;45751;51.380;10.326;2024-01-07T07:45:33;6.25;;;1.73;;
59880;SDS011;45751;51.380;10.326;2024-01-07T07:47:59;7.30;;;1.88;;
59880;SDS011;45751;51.380;10.326;2024-01-07T07:50:25;4.60;;;1.77;;
59880;SDS011;45751;51.380;10.326;2024-01-07T07:52:51;6.80;;;1.52;;
59880;SDS011;45751;51.380;10.326;2024-01-07T07:55:16;5.00;;;1.83;;
59880;SDS011;45751;51.380;10.326;2024-01-07T07:57:42;5.72;;;2.08;;
59880;SDS011;45751;51.380;10.326;2024-01-07T08:00:08;5.38;;;2.15;;
59880;SDS011;45751;51.380;10.326;2024-01-07T08:02:38;5.13;;;1.65;;
59880;SDS011;45751;51.380;10.326;2024-01-07T08:05:04;2.55;;;1.13;;
59880;SDS011;45751;51.380;10.326;2024-01-07T08:07:31;6.45;;;1.92;;
59880;SDS011;45751;51.380;10.326;2024-01-07T08:09:57;4.07;;;1.20;;
59880;SDS011;45751;51.380;10.326;2024-01-07T08:12:23;3.30;;;1.17;;
59880;SDS011;45751;51.380;10.326;2024-01-07T08:14:49;4.55;;;1.48;;
59880;SDS011;45751;51.380;10.326;2024-01-07T08:17:15;3.63;;;1.48;;
59880;SDS011;45751;51.380;10.326;2024-01-07T08:19:40;5.00;;;1.08;;
59880;SDS011;45751;51.380;10.326;2024-01-07T08:22:06;2.58;;;1.25;;
59880;SDS011;45751;51.380;10.326;2024-01-07T08:24:32;3.35;;;1.52;;
59880;SDS011;45751;51.380;10.326;2024-01-07T08:26:58;4.05;;;1.23;;
59880;SDS011;45751;51.380;10.326;2024-01-07T08:29:24;4.13;;;1.52;;
59880;SDS011;45751;51.380;10.326;2024-01-07T08:31:49;2.15;;;0.65;;
59880;SDS011;45751;51.380;10.326;2024-01-07T08:34:15;3.15;;;1.23;;
59880;SDS011;45751;51.380;10.326;2024-01-07T08:36:41;4.18;;;1.42;;
59880;SDS011;45751;51.380;10.326;2024-01-07T08:39:07;4.70;;;1.88;;
59880;SDS011;45751;51.380;10.326;2024-01-07T08:41:33;4.20;;;1.25;;
59880;SDS011;45751;51.380;10.326;2024-01-07T08:43:59;3.28;;;1.30;;
59880;SDS011;45751;51.380;10.326;2024-01-07T08:46:24;4.20;;;2.03;;
59880;SDS011;45751;51.380;10.326;2024-01-07T08:48:50;3.90;;;1.23;;
59880;SDS011;45751;51.380;10.326;2024-01-07T08:51:16;3.58;;;1.35;;
59880;SDS011;45751;51.380;10.326;2024-01-07T08:53:42;5.25;;;1.92;;
59880;SDS011;45751;51.380;10.326;2024-01-07T08:56:08;6.10;;;1.48;;
59880;SDS011;45751;51.380;10.326;2024-01-07T08:58:34;5.78;;;1.67;;
59880;SDS011;45751;51.380;10.326;2024-01-07T09:00:59;4.80;;;1.70;;
59880;SDS011;45751;51.380;10.326;2024-01-07T09:03:25;7.15;;;1.50;;
59880;SDS011;45751;51.380;10.326;2024-01-07T09:05:51;7.93;;;1.55;;
59880;SDS011;45751;51.380;10.326;2024-01-07T09:08:17;4.25;;;1.40;;
59880;SDS011;45751;51.380;10.326;2024-01-07T09:10:42;4.13;;;1.50;;
59880;SDS011;45751;51.380;10.326;2024-01-07T09:13:08;3.50;;;1.23;;
59880;SDS011;45751;51.380;10.326;2024-01-07T09:15:34;5.50;;;1.80;;
59880;SDS011;45751;51.380;10.326;2024-01-07T09:17:59;4.80;;;1.70;;
59880;SDS011;45751;51.380;10.326;2024-01-07T09:20:25;5.03;;;2.33;;
59880;SDS011;45751;51.380;10.326;2024-01-07T09:22:51;3.47;;;1.52;;
59880;SDS011;45751;51.380;10.326;2024-01-07T09:25:16;8.75;;;1.23;;
59880;SDS011;45751;51.380;10.326;2024-01-07T09:27:42;3.58;;;1.13;;
59880;SDS011;45751;51.380;10.326;2024-01-07T09:30:09;2.70;;;1.25;;
59880;SDS011;45751;51.380;10.326;2024-01-07T09:32:40;2.80;;;1.00;;
59880;SDS011;45751;51.380;10.326;2024-01-07T09:35:07;4.80;;;1.77;;
59880;SDS011;45751;51.380;10.326;2024-01-07T09:37:33;4.50;;;1.60;;
59880;SDS011;45751;51.380;10.326;2024-01-07T09:40:00;4.63;;;1.63;;
59880;SDS011;45751;51.380;10.326;2024-01-07T09:42:26;3.00;;;0.88;;
59880;SDS011;45751;51.380;10.326;2024-01-07T09:44:52;1.85;;;0.77;;
59880;SDS011;45751;51.380;10.326;2024-01-07T09:47:18;2.90;;;1.63;;
59880;SDS011;45751;51.380;10.326;2024-01-07T09:49:45;1.85;;;0.73;;
59880;SDS011;45751;51.380;10.326;2024-01-07T09:52:11;2.67;;;0.90;;
59880;SDS011;45751;51.380;10.326;2024-01-07T09:54:37;2.90;;;0.88;;
59880;SDS011;45751;51.380;10.326;2024-01-07T09:57:04;2.90;;;1.25;;
59880;SDS011;45751;51.380;10.326;2024-01-07T09:59:32;3.92;;;0.82;;
59880;SDS011;45751;51.380;10.326;2024-01-07T10:02:02;9.18;;;1.25;;
59880;SDS011;45751;51.380;10.326;2024-01-07T10:04:28;3.28;;;1.52;;
59880;SDS011;45751;51.380;10.326;2024-01-07T10:06:54;5.68;;;1.30;;
59880;SDS011;45751;51.380;10.326;2024-01-07T10:09:30;4.20;;;1.63;;
59880;SDS011;45751;51.380;10.326;2024-01-07T10:11:58;2.70;;;0.75;;
59880;SDS011;45751;51.380;10.326;2024-01-07T10:14:24;2.25;;;0.68;;
59880;SDS011;45751;51.380;10.326;2024-01-07T10:16:54;2.40;;;0.75;;
59880;SDS011;45751;51.380;10.326;2024-01-07T10:19:20;3.75;;;1.30;;
59880;SDS011;45751;51.380;10.326;2024-01-07T10:21:48;6.15;;;3.08;;
59880;SDS011;45751;51.380;10.326;2024-01-07T10:24:37;11.32;;;4.75;;
59880;SDS011;45751;51.380;10.326;2024-01-07T10:27:06;7.05;;;2.08;;
59880;SDS011;45751;51.380;10.326;2024-01-07T10:29:33;5.32;;;0.85;;
59880;SDS011;45751;51.380;10.326;2024-01-07T10:31:59;4.18;;;1.23;;
59880;SDS011;45751;51.380;10.326;2024-01-07T10:34:33;4.65;;;0.95;;
59880;SDS011;45751;51.380;10.326;2024-01-07T10:37:00;4.28;;;1.23;;
59880;SDS011;45751;51.380;10.326;2024-01-07T10:39:28;7.32;;;2.13;;
59880;SDS011;45751;51.380;10.326;2024-01-07T10:41:55;6.63;;;2.33;;
59880;SDS011;45751;51.380;10.326;2024-01-07T10:44:26;8.52;;;2.90;;
59880;SDS011;45751;51.380;10.326;2024-01-07T10:46:55;3.83;;;1.42;;
59880;SDS011;45751;51.380;10.326;2024-01-07T10:49:28;3.83;;;1.27;;
59880;SDS011;45751;51.380;10.326;2024-01-07T10:52:02;1.67;;;0.82;;
59880;SDS011;45751;51.380;10.326;2024-01-07T10:54:30;2.72;;;0.88;;
59880;SDS011;45751;51.380;10.326;2024-01-07T10:56:58;3.58;;;1.65;;
59880;SDS011;45751;51.380;10.326;2024-01-07T10:59:30;1.52;;;0.75;;
59880;SDS011;45751;51.380;10.326;2024-01-07T11:01:58;1.85;;;0.90;;
59880;SDS011;45751;51.380;10.326;2024-01-07T11:07:18;1.33;;;0.70;;
59880;SDS011;45751;51.380;10.326;2024-01-07T11:10:10;1.40;;;0.50;;
59880;SDS011;45751;51.380;10.326;2024-01-07T11:12:40;5.43;;;1.27;;
59880;SDS011;45751;51.380;10.326;2024-01-07T11:15:06;8.45;;;3.03;;
59880;SDS011;45751;51.380;10.326;2024-01-07T11:19:59;1.27;;;0.60;;
59880;SDS011;45751;51.380;10.326;2024-01-07T11:22:28;3.08;;;0.82;;
59880;SDS011;45751;51.380;10.326;2024-01-07T11:24:54;4.15;;;1.33;;
59880;SDS011;45751;51.380;10.326;2024-01-07T11:27:28;2.95;;;0.98;;
59880;SDS011;45751;51.380;10.326;2024-01-07T11:32:29;4.60;;;1.13;;
59880;SDS011;45751;51.380;10.326;2024-01-07T11:34:55;3.80;;;1.23;;
59880;SDS011;45751;51.380;10.326;2024-01-07T11:37:23;2.92;;;0.90;;
59880;SDS011;45751;51.380;10.326;2024-01-07T11:39:51;6.47;;;1.75;;
59880;SDS011;45751;51.380;10.326;2024-01-07T11:42:20;5.80;;;2.17;;
59880;SDS011;45751;51.380;10.326;2024-01-07T11:44:54;7.00;;;3.17;;
59880;SDS011;45751;51.380;10.326;2024-01-07T11:47:21;2.75;;;0.90;;
59880;SDS011;45751;51.380;10.326;2024-01-07T11:49:47;1.98;;;0.85;;
59880;SDS011;45751;51.380;10.326;2024-01-07T11:52:14;4.07;;;0.93;;
59880;SDS011;45751;51.380;10.326;2024-01-07T11:54:40;2.03;;;1.00;;
59880;SDS011;45751;51.380;10.326;2024-01-07T11:57:07;2.35;;;0.82;;
59880;SDS011;45751;51.380;10.326;2024-01-07T11:59:33;2.42;;;0.70;;
59880;SDS011;45751;51.380;10.326;2024-01-07T12:01:59;1.50;;;0.77;;
59880;SDS011;45751;51.380;10.326;2024-01-07T12:04:26;2.67;;;0.60;;
59880;SDS011;45751;51.380;10.326;2024-01-07T12:06:53;1.98;;;0.70;;
59880;SDS011;45751;51.380;10.326;2024-01-07T12:09:19;1.70;;;0.68;;
59880;SDS011;45751;51.380;10.326;2024-01-07T12:11:44;5.35;;;1.90;;
59880;SDS011;45751;51.380;10.326;2024-01-07T12:14:10;10.55;;;4.03;;
59880;SDS011;45751;51.380;10.326;2024-01-07T12:16:37;6.32;;;2.55;;
59880;SDS011;45751;51.380;10.326;2024-01-07T12:19:03;3.25;;;0.95;;
59880;SDS011;45751;51.380;10.326;2024-01-07T12:21:29;2.92;;;1.27;;
59880;SDS011;45751;51.380;10.326;2024-01-07T12:23:55;1.83;;;0.85;;
59880;SDS011;45751;51.380;10.326;2024-01-07T12:26:25;3.53;;;1.50;;
59880;SDS011;45751;51.380;10.326;2024-01-07T12:28:56;2.65;;;1.05;;
59880;SDS011;45751;51.380;10.326;2024-01-07T12:31:32;2.58;;;0.85;;
59880;SDS011;45751;51.380;10.326;2024-01-07T12:33:59;2.45;;;0.82;;
59880;SDS011;45751;51.380;10.326;2024-01-07T12:36:25;5.28;;;1.33;;
59880;SDS011;45751;51.380;10.326;2024-01-07T12:38:51;3.45;;;0.60;;
59880;SDS011;45751;51.380;10.326;2024-01-07T12:41:21;3.80;;;1.07;;
59880;SDS011;45751;51.380;10.326;2024-01-07T12:43:48;1.63;;;0.50;;
59880;SDS011;45751;51.380;10.326;2024-01-07T12:46:14;4.82;;;1.90;;
59880;SDS011;45751;51.380;10.326;2024-01-07T12:48:40;1.90;;;0.70;;
59880;SDS011;45751;51.380;10.326;2024-01-07T12:51:06;1.92;;;0.73;;
59880;SDS011;45751;51.380;10.326;2024-01-07T12:53:31;4.80;;;0.85;;
59880;SDS011;45751;51.380;10.326;2024-01-07T12:55:57;1.90;;;0.90;;
59880;SDS011;45751;51.380;10.326;2024-01-07T12:58:23;1.40;;;0.65;;
59880;SDS011;45751;51.380;10.326;2024-01-07T13:00:48;2.67;;;0.90;;
59880;SDS011;45751;51.380;10.326;2024-01-07T13:03:14;2.78;;;1.10;;
59880;SDS011;45751;51.380;10.326;2024-01-07T13:05:44;2.30;;;0.77;;
59880;SDS011;45751;51.380;10.326;2024-01-07T13:08:11;3.10;;;1.23;;
59880;SDS011;45751;51.380;10.326;2024-01-07T13:10:38;2.63;;;0.77;;
59880;SDS011;45751;51.380;10.326;2024-01-07T13:13:04;1.67;;;0.80;;
59880;SDS011;45751;51.380;10.326;2024-01-07T13:15:29;12.95;;;4.60;;
59880;SDS011;45751;51.380;10.326;2024-01-07T13:17:56;6.05;;;2.30;;
59880;SDS011;45751;51.380;10.326;2024-01-07T13:20:22;3.33;;;1.10;;
59880;SDS011;45751;51.380;10.326;2024-01-07T13:22:49;3.58;;;1.13;;
59880;SDS011;45751;51.380;10.326;2024-01-07T13:25:15;2.40;;;0.73;;
59880;SDS011;45751;51.380;10.326;2024-01-07T13:27:40;1.45;;;0.50;;
59880;SDS011;45751;51.380;10.326;2024-01-07T13:30:07;1.70;;;0.70;;
59880;SDS011;45751;51.380;10.326;2024-01-07T13:32:34;3.22;;;1.67;;
59880;SDS011;45751;51.380;10.326;2024-01-07T13:35:04;3.30;;;1.33;;
59880;SDS011;45751;51.380;10.326;2024-01-07T13:37:35;1.95;;;0.63;;
59880;SDS011;45751;51.380;10.326;2024-01-07T13:40:02;2.97;;;1.48;;
59880;SDS011;45751;51.380;10.326;2024-01-07T13:42:29;1.63;;;0.60;;
59880;SDS011;45751;51.380;10.326;2024-01-07T13:44:55;2.20;;;0.75;;
59880;SDS011;45751;51.380;10.326;2024-01-07T13:47:20;2.20;;;0.98;;
59880;SDS011;45751;51.380;10.326;2024-01-07T13:49:46;1.15;;;0.43;;
59880;SDS011;45751;51.380;10.326;2024-01-07T13:52:12;5.10;;;1.02;;
59880;SDS011;45751;51.380;10.326;2024-01-07T13:54:38;1.17;;;0.57;;
59880;SDS011;45751;51.380;10.326;2024-01-07T13:57:04;4.97;;;1.75;;
59880;SDS011;45751;51.380;10.326;2024-01-07T13:59:30;1.90;;;0.50;;
59880;SDS011;45751;51.380;10.326;2024-01-07T14:01:55;2.53;;;1.23;;
59880;SDS011;45751;51.380;10.326;2024-01-07T14:04:24;3.33;;;0.88;;
59880;SDS011;45751;51.380;10.326;2024-01-07T14:06:54;2.22;;;0.88;;
59880;SDS011;45751;51.380;10.326;2024-01-07T14:09:21;2.42;;;1.33;;
59880;SDS011;45751;51.380;10.326;2024-01-07T14:11:47;3.03;;;0.98;;
59880;SDS011;45751;51.380;10.326;2024-01-07T14:14:13;9.25;;;2.40;;
59880;SDS011;45751;51.380;10.326;2024-01-07T14:16:38;12.43;;;4.43;;
59880;SDS011;45751;51.380;10.326;2024-01-07T14:19:05;8.05;;;2.95;;
59880;SDS011;45751;51.380;10.326;2024-01-07T14:21:31;2.13;;;0.70;;
59880;SDS011;45751;51.380;10.326;2024-01-07T14:23:57;3.20;;;1.27;;
59880;SDS011;45751;51.380;10.326;2024-01-07T14:26:23;2.05;;;0.70;;
59880;SDS011;45751;51.380;10.326;2024-01-07T14:28:51;0.95;;;0.50;;
59880;SDS011;45751;51.380;10.326;2024-01-07T14:31:17;2.80;;;1.23;;
59880;SDS011;45751;51.380;10.326;2024-01-07T14:33:43;4.07;;;1.02;;